createdAt,value
2022-09-03T00:00:07.207Z,58.81
2022-09-03T00:01:07.230Z,58.97
2022-09-03T00:02:07.230Z,60.10
2022-09-03T00:03:07.486Z,62.04
2022-09-03T00:04:07.168Z,61.39
2022-09-03T00:05:07.162Z,61.07
2022-09-03T00:06:07.153Z,60.26
2022-09-03T00:07:07.387Z,62.52
2022-09-03T00:08:07.171Z,62.68
2022-09-03T00:09:08.519Z,60.10
2022-09-03T00:10:07.136Z,60.75
2022-09-03T00:11:07.083Z,59.94
2022-09-03T00:12:07.073Z,59.14
2022-09-03T00:13:07.091Z,57.04
2022-09-03T00:14:07.093Z,57.85
2022-09-03T00:15:07.024Z,59.46
2022-09-03T00:16:07.068Z,59.14
2022-09-03T00:17:07.090Z,63.81
2022-09-03T00:18:07.048Z,62.52
2022-09-03T00:19:07.756Z,61.39
2022-09-03T00:20:06.979Z,60.42
2022-09-03T00:21:07.048Z,61.39
2022-09-03T00:22:06.975Z,63.65
2022-09-03T00:23:06.948Z,61.07
2022-09-03T00:24:07.005Z,61.39
2022-09-03T00:25:06.933Z,62.20
2022-09-03T00:26:06.972Z,65.58
2022-09-03T00:27:06.904Z,60.59
2022-09-03T00:28:06.905Z,60.91
2022-09-03T00:29:06.988Z,59.78
2022-09-03T00:30:06.905Z,63.81
2022-09-03T00:31:06.941Z,59.62
2022-09-03T00:32:06.862Z,62.68
2022-09-03T00:33:06.841Z,58.97
2022-09-03T00:34:06.840Z,59.30
2022-09-03T00:35:06.860Z,63.49
2022-09-03T00:36:06.804Z,62.84
2022-09-03T00:37:06.807Z,62.04
2022-09-03T00:38:06.803Z,61.39
2022-09-03T00:39:06.819Z,62.04
2022-09-03T00:40:06.818Z,62.36
2022-09-03T00:41:06.766Z,62.84
2022-09-03T00:42:06.747Z,61.39
2022-09-03T00:43:06.761Z,59.30
2022-09-03T00:44:06.712Z,60.59
2022-09-03T00:45:06.725Z,59.14
2022-09-03T00:46:06.748Z,58.33
2022-09-03T00:47:06.683Z,59.62
2022-09-03T00:48:06.693Z,57.69
2022-09-03T00:49:06.692Z,58.01
2022-09-03T00:50:06.642Z,59.30
2022-09-03T00:51:06.652Z,57.69
2022-09-03T00:52:06.624Z,60.59
2022-09-03T00:53:06.668Z,60.26
2022-09-03T00:54:06.634Z,61.39
2022-09-03T00:55:06.837Z,57.04
2022-09-03T00:56:06.654Z,59.46
2022-09-03T00:57:06.771Z,60.75
2022-09-03T00:58:06.566Z,60.59
2022-09-03T00:59:06.555Z,59.46
2022-09-03T01:00:06.570Z,59.14
2022-09-03T01:01:06.569Z,61.07
2022-09-03T01:02:06.608Z,62.68
2022-09-03T01:03:06.532Z,62.36
2022-09-03T01:04:06.497Z,62.52
2022-09-03T01:05:06.550Z,62.52
2022-09-03T01:06:06.534Z,61.39
2022-09-03T01:07:06.488Z,61.39
2022-09-03T01:08:06.487Z,60.10
2022-09-03T01:09:06.470Z,62.68
2022-09-03T01:10:06.451Z,62.20
2022-09-03T01:11:06.505Z,61.87
2022-09-03T01:12:06.445Z,60.26
2022-09-03T01:13:06.464Z,63.97
2022-09-03T01:14:06.400Z,61.39
2022-09-03T01:15:06.382Z,58.97
2022-09-03T01:16:06.403Z,58.01
2022-09-03T01:17:06.381Z,57.85
2022-09-03T01:18:06.346Z,55.11
2022-09-03T01:19:06.334Z,59.62
2022-09-03T01:20:06.322Z,59.78
2022-09-03T01:21:06.327Z,61.71
2022-09-03T01:22:06.353Z,62.36
2022-09-03T01:23:06.304Z,61.71
2022-09-03T01:24:06.328Z,59.94
2022-09-03T01:25:06.270Z,61.87
2022-09-03T01:26:06.266Z,59.94
2022-09-03T01:27:06.290Z,63.33
2022-09-03T01:28:06.229Z,65.26
2022-09-03T01:29:07.313Z,63.97
2022-09-03T01:30:06.300Z,62.20
2022-09-03T01:31:06.214Z,61.39
2022-09-03T01:32:06.216Z,62.68
2022-09-03T01:33:06.218Z,59.94
2022-09-03T01:34:06.188Z,60.42
2022-09-03T01:35:06.159Z,58.81
2022-09-03T01:36:06.145Z,62.84
2022-09-03T01:37:06.146Z,63.33
2022-09-03T01:38:06.190Z,61.71
2022-09-03T01:39:06.114Z,59.46
2022-09-03T01:40:06.219Z,60.26
2022-09-03T01:41:06.108Z,61.55
2022-09-03T01:42:06.132Z,61.39
2022-09-03T01:43:06.064Z,61.39
2022-09-03T01:44:06.109Z,62.52
2022-09-03T01:45:06.072Z,63.65
2022-09-03T01:46:06.165Z,60.42
2022-09-03T01:47:06.089Z,62.52
2022-09-03T01:48:06.043Z,62.68
2022-09-03T01:49:06.091Z,61.87
2022-09-03T01:50:05.993Z,59.78
2022-09-03T01:51:06.015Z,59.94
2022-09-03T01:52:05.978Z,58.65
2022-09-03T01:53:05.953Z,61.39
2022-09-03T01:54:05.984Z,61.87
2022-09-03T01:55:05.962Z,61.55
2022-09-03T01:56:05.927Z,60.42
2022-09-03T01:57:05.934Z,60.91
2022-09-03T01:58:05.916Z,61.23
2022-09-03T01:59:05.923Z,63.49
2022-09-03T02:00:05.959Z,63.49
2022-09-03T02:01:05.961Z,63.16
2022-09-03T02:02:05.852Z,60.91
2022-09-03T02:03:05.864Z,60.91
2022-09-03T02:04:05.842Z,64.78
2022-09-03T02:05:05.873Z,64.61
2022-09-03T02:06:05.829Z,63.00
2022-09-03T02:07:05.841Z,57.36
2022-09-03T02:08:07.187Z,61.55
2022-09-03T02:09:06.082Z,62.36
2022-09-03T02:10:05.767Z,60.26
2022-09-03T02:11:05.803Z,59.62
2022-09-03T02:12:05.774Z,63.00
2022-09-03T02:13:05.748Z,62.52
2022-09-03T02:14:05.744Z,63.00
2022-09-03T02:15:05.742Z,64.13
2022-09-03T02:16:05.864Z,63.65
2022-09-03T02:17:05.754Z,63.97
2022-09-03T02:18:05.884Z,63.97
2022-09-03T02:19:05.683Z,64.29
2022-09-03T02:20:05.695Z,64.61
2022-09-03T02:21:05.650Z,62.36
2022-09-03T02:22:05.703Z,59.94
2022-09-03T02:23:05.631Z,60.75
2022-09-03T02:24:05.650Z,60.59
2022-09-03T02:25:05.609Z,61.39
2022-09-03T02:26:05.582Z,62.68
2022-09-03T02:27:05.631Z,64.13
2022-09-03T02:28:05.661Z,63.97
2022-09-03T02:29:05.570Z,63.00
2022-09-03T02:30:05.585Z,59.14
2022-09-03T02:31:05.611Z,61.07
2022-09-03T02:32:05.583Z,58.17
2022-09-03T02:33:05.553Z,60.42
2022-09-03T02:34:05.530Z,59.78
2022-09-03T02:35:05.499Z,61.39
2022-09-03T02:36:05.491Z,60.10
2022-09-03T02:37:05.492Z,62.68
2022-09-03T02:38:05.547Z,62.52
2022-09-03T02:39:05.447Z,63.00
2022-09-03T02:40:05.528Z,61.55
2022-09-03T02:41:05.428Z,59.94
2022-09-03T02:42:05.426Z,63.33
2022-09-03T02:43:06.449Z,58.65
2022-09-03T02:44:05.405Z,61.55
2022-09-03T02:45:05.385Z,62.36
2022-09-03T02:46:05.468Z,62.52
2022-09-03T02:47:05.363Z,62.36
2022-09-03T02:48:05.388Z,57.85
2022-09-03T02:49:05.364Z,59.78
2022-09-03T02:50:05.379Z,57.20
2022-09-03T02:51:07.959Z,60.42
2022-09-03T02:52:05.311Z,62.52
2022-09-03T02:53:05.321Z,59.78
2022-09-03T02:54:05.321Z,59.94
2022-09-03T02:55:05.259Z,60.75
2022-09-03T02:56:05.280Z,59.94
2022-09-03T02:57:05.270Z,60.91
2022-09-03T02:58:05.310Z,58.49
2022-09-03T02:59:05.257Z,59.62
2022-09-03T03:00:05.214Z,60.91
2022-09-03T03:01:05.438Z,58.97
2022-09-03T03:02:05.257Z,57.69
2022-09-03T03:03:05.207Z,58.01
2022-09-03T03:04:05.794Z,58.81
2022-09-03T03:05:05.144Z,59.78
2022-09-03T03:06:05.185Z,58.97
2022-09-03T03:07:05.165Z,59.46
2022-09-03T03:08:05.126Z,58.65
2022-09-03T03:09:05.166Z,59.94
2022-09-03T03:10:05.147Z,59.30
2022-09-03T03:11:05.128Z,60.10
2022-09-03T03:12:05.092Z,59.94
2022-09-03T03:13:05.591Z,56.07
2022-09-03T03:14:05.081Z,56.88
2022-09-03T03:15:05.081Z,57.36
2022-09-03T03:16:05.030Z,60.91
2022-09-03T03:17:05.066Z,61.39
2022-09-03T03:18:05.038Z,60.75
2022-09-03T03:19:05.047Z,60.10
2022-09-03T03:20:04.995Z,60.75
2022-09-03T03:21:05.001Z,60.59
2022-09-03T03:22:04.986Z,58.65
2022-09-03T03:23:04.970Z,60.42
2022-09-03T03:24:04.996Z,59.14
2022-09-03T03:25:04.931Z,59.62
2022-09-03T03:26:04.919Z,60.42
2022-09-03T03:27:04.930Z,60.10
2022-09-03T03:28:04.911Z,59.94
2022-09-03T03:29:04.925Z,57.85
2022-09-03T03:30:04.943Z,61.39
2022-09-03T03:31:04.893Z,62.68
2022-09-03T03:32:04.847Z,57.69
2022-09-03T03:33:04.831Z,58.81
2022-09-03T03:34:04.864Z,63.97
2022-09-03T03:35:04.882Z,62.52
2022-09-03T03:36:04.878Z,63.49
2022-09-03T03:37:04.807Z,64.45
2022-09-03T03:38:04.802Z,60.91
2022-09-03T03:39:04.818Z,59.78
2022-09-03T03:40:04.890Z,60.75
2022-09-03T03:41:04.764Z,62.36
2022-09-03T03:42:04.731Z,61.07
2022-09-03T03:43:04.748Z,60.75
2022-09-03T03:44:04.736Z,61.39
2022-09-03T03:45:04.757Z,62.20
2022-09-03T03:46:04.758Z,62.36
2022-09-03T03:47:04.698Z,61.07
2022-09-03T03:48:04.666Z,61.87
2022-09-03T03:49:04.699Z,60.75
2022-09-03T03:50:04.667Z,61.87
2022-09-03T03:51:04.704Z,61.07
2022-09-03T03:52:04.647Z,59.46
2022-09-03T03:53:04.633Z,60.42
2022-09-03T03:54:05.611Z,62.04
2022-09-03T03:55:04.604Z,64.78
2022-09-03T03:56:04.624Z,63.49
2022-09-03T03:57:04.607Z,63.00
2022-09-03T03:58:04.550Z,63.16
2022-09-03T03:59:04.570Z,60.75
2022-09-03T04:00:04.527Z,62.36
2022-09-03T04:01:04.558Z,62.84
2022-09-03T04:02:04.606Z,58.17
2022-09-03T04:03:04.486Z,62.84
2022-09-03T04:04:04.490Z,60.42
2022-09-03T04:05:04.514Z,60.91
2022-09-03T04:06:04.490Z,64.61
2022-09-03T04:07:04.496Z,63.33
2022-09-03T04:08:05.225Z,61.71
2022-09-03T04:09:04.441Z,63.81
2022-09-03T04:10:04.441Z,62.68
2022-09-03T04:11:04.404Z,63.00
2022-09-03T04:12:04.445Z,61.23
2022-09-03T04:13:04.374Z,61.55
2022-09-03T04:14:04.372Z,59.94
2022-09-03T04:15:04.379Z,60.75
2022-09-03T04:16:04.329Z,62.36
2022-09-03T04:17:04.468Z,63.00
2022-09-03T04:18:04.362Z,63.97
2022-09-03T04:19:04.334Z,64.13
2022-09-03T04:20:04.288Z,63.16
2022-09-03T04:21:04.285Z,62.36
2022-09-03T04:22:04.300Z,62.20
2022-09-03T04:23:04.312Z,62.20
2022-09-03T04:24:04.240Z,62.84
2022-09-03T04:25:04.250Z,60.42
2022-09-03T04:26:04.221Z,60.59
2022-09-03T04:27:04.230Z,58.81
2022-09-03T04:28:04.213Z,59.30
2022-09-03T04:29:04.215Z,60.42
2022-09-03T04:30:04.202Z,61.87
2022-09-03T04:31:04.208Z,60.42
2022-09-03T04:32:04.141Z,58.97
2022-09-03T04:33:04.208Z,61.07
2022-09-03T04:34:04.126Z,61.71
2022-09-03T04:35:04.123Z,58.17
2022-09-03T04:36:04.120Z,59.94
2022-09-03T04:37:04.099Z,60.42
2022-09-03T04:38:04.084Z,62.84
2022-09-03T04:39:04.114Z,60.59
2022-09-03T04:40:04.119Z,61.87
2022-09-03T04:41:04.068Z,62.68
2022-09-03T04:42:04.034Z,59.94
2022-09-03T04:43:04.022Z,64.13
2022-09-03T04:44:04.051Z,59.30
2022-09-03T04:45:04.063Z,61.71
2022-09-03T04:46:04.269Z,63.49
2022-09-03T04:47:04.056Z,63.65
2022-09-03T04:48:04.104Z,62.84
2022-09-03T06:56:34.955Z,70.42
2022-09-03T06:57:32.426Z,71.70
2022-09-03T06:58:30.792Z,72.67
2022-09-03T06:59:30.904Z,71.54
2022-09-03T07:00:30.834Z,70.58
2022-09-03T07:01:31.512Z,69.61
2022-09-03T07:02:30.739Z,63.00
2022-09-03T07:03:30.750Z,63.16
2022-09-03T07:04:30.708Z,66.23
2022-09-03T07:05:30.703Z,62.84
2022-09-03T07:06:30.618Z,65.10
2022-09-03T07:07:30.746Z,63.97
2022-09-03T07:08:30.629Z,63.00
2022-09-03T07:09:31.795Z,65.58
2022-09-03T07:10:31.901Z,69.61
2022-09-03T07:11:31.795Z,65.10
2022-09-03T07:12:31.783Z,63.97
2022-09-03T07:13:31.773Z,64.61
2022-09-03T07:14:31.722Z,64.94
2022-09-03T07:15:31.824Z,78.96
2022-09-03T07:16:31.694Z,78.31
2022-09-03T07:17:31.755Z,79.28
2022-09-03T07:18:31.877Z,70.25
2022-09-03T07:19:31.742Z,69.93
2022-09-03T07:24:10.931Z,70.74
2022-09-03T07:25:11.088Z,64.78
2022-09-03T07:26:10.815Z,66.06
2022-09-03T07:27:14.374Z,76.05
2022-09-03T07:28:10.773Z,63.97
2022-09-03T07:29:10.853Z,80.24
2022-09-03T07:30:10.771Z,69.29
2022-09-03T07:31:10.875Z,64.29
2022-09-03T07:32:10.785Z,64.29
2022-09-03T07:33:10.729Z,69.61
2022-09-03T07:34:10.804Z,70.58
2022-09-03T07:35:10.684Z,65.26
2022-09-03T07:36:10.674Z,64.94
2022-09-03T07:37:10.694Z,72.67
2022-09-03T07:38:10.665Z,76.05
2022-09-03T07:39:10.636Z,80.57
2022-09-03T07:40:10.626Z,66.55
2022-09-03T07:41:10.627Z,64.29
2022-09-03T07:42:10.611Z,74.77
2022-09-03T07:43:10.617Z,64.78
2022-09-03T07:44:10.565Z,63.49
2022-09-03T07:45:10.559Z,64.45
2022-09-03T07:46:10.573Z,64.29
2022-09-03T07:47:10.567Z,64.13
2022-09-03T07:48:10.528Z,64.61
2022-09-03T07:49:10.532Z,63.00
2022-09-03T07:50:10.493Z,64.13
2022-09-03T07:51:10.522Z,63.65
2022-09-03T07:52:11.881Z,66.06
2022-09-03T07:53:10.464Z,65.74
2022-09-03T07:54:10.659Z,64.29
2022-09-03T07:55:10.459Z,64.94
2022-09-03T07:56:10.425Z,66.06
2022-09-03T07:57:10.417Z,63.16
2022-09-03T07:58:10.424Z,64.45
2022-09-03T07:59:10.438Z,66.06
2022-09-03T08:00:20.886Z,64.61
2022-09-03T08:01:20.593Z,63.00
2022-09-03T08:02:10.417Z,60.10
2022-09-03T08:03:10.533Z,64.29
2022-09-03T08:04:10.417Z,65.26
2022-09-03T08:05:10.396Z,63.00
2022-09-03T08:06:10.472Z,63.49
2022-09-03T08:07:10.293Z,62.04
2022-09-03T08:08:10.464Z,64.13
2022-09-03T08:09:10.272Z,62.84
2022-09-03T08:10:10.256Z,63.00
2022-09-03T08:11:10.267Z,61.55
2022-09-03T08:12:10.222Z,62.04
2022-09-03T08:13:10.215Z,61.87
2022-09-03T08:14:10.208Z,58.81
2022-09-03T08:15:10.196Z,62.04
2022-09-03T08:16:11.379Z,61.71
2022-09-03T08:17:11.285Z,61.71
2022-09-03T08:18:11.280Z,62.36
2022-09-03T08:19:11.276Z,63.49
2022-09-03T08:20:11.258Z,63.33
2022-09-03T08:21:11.273Z,64.13
2022-09-03T08:22:11.211Z,62.52
2022-09-03T08:23:11.202Z,63.49
2022-09-03T08:24:11.272Z,64.45
2022-09-03T08:25:13.853Z,66.71
2022-09-03T08:26:11.167Z,63.97
2022-09-03T08:27:11.176Z,65.26
2022-09-03T08:28:11.166Z,65.42
2022-09-03T08:29:11.134Z,65.42
2022-09-03T08:30:11.120Z,63.97
2022-09-03T08:31:11.136Z,60.10
2022-09-03T08:32:11.145Z,64.78
2022-09-03T08:33:11.099Z,63.97
2022-09-03T08:34:11.092Z,65.10
2022-09-03T08:35:11.222Z,63.81
2022-09-03T08:36:11.190Z,63.16
2022-09-03T08:37:11.122Z,65.10
2022-09-03T08:38:11.071Z,63.97
2022-09-03T08:39:11.189Z,64.45
2022-09-03T08:40:11.013Z,64.78
2022-09-03T08:41:10.994Z,65.42
2022-09-03T08:42:10.976Z,63.65
2022-09-03T08:43:11.024Z,67.84
2022-09-03T08:44:10.959Z,63.81
2022-09-03T08:45:10.940Z,63.49
2022-09-03T08:46:11.020Z,65.58
2022-09-03T08:47:10.917Z,63.81
2022-09-03T08:48:10.918Z,64.29
2022-09-03T08:49:10.910Z,66.06
2022-09-03T08:50:10.885Z,65.26
2022-09-03T08:51:10.869Z,65.58
2022-09-03T08:52:10.862Z,65.58
2022-09-03T08:53:10.884Z,65.26
2022-09-03T08:54:10.825Z,63.16
2022-09-03T08:55:10.825Z,62.84
2022-09-03T08:56:10.810Z,64.78
2022-09-03T08:57:10.789Z,65.90
2022-09-03T08:58:10.834Z,70.25
2022-09-03T08:59:10.769Z,62.84
2022-09-03T09:00:10.751Z,65.26
2022-09-03T09:01:10.741Z,63.49
2022-09-03T09:02:10.830Z,64.29
2022-09-03T09:03:10.721Z,64.29
2022-09-03T09:04:10.729Z,65.10
2022-09-03T09:05:14.255Z,62.84
2022-09-03T09:06:10.680Z,64.78
2022-09-03T09:07:10.673Z,65.58
2022-09-03T09:08:10.660Z,67.35
2022-09-03T09:09:10.682Z,64.29
2022-09-03T09:10:10.643Z,60.59
2022-09-03T09:11:10.646Z,63.81
2022-09-03T09:12:10.619Z,63.81
2022-09-03T09:13:10.594Z,67.03
2022-09-03T09:14:10.596Z,66.55
2022-09-03T09:15:10.593Z,65.26
2022-09-03T09:16:10.614Z,64.78
2022-09-03T09:17:10.547Z,64.94
2022-09-03T09:18:10.529Z,65.58
2022-09-03T09:19:10.529Z,65.42
2022-09-03T09:20:10.551Z,67.19
2022-09-03T09:21:10.503Z,70.42
2022-09-03T09:22:10.483Z,66.55
2022-09-03T09:23:10.462Z,65.10
2022-09-03T09:24:10.471Z,67.68
2022-09-03T09:25:10.459Z,66.55
2022-09-03T09:26:10.474Z,70.74
2022-09-03T09:27:15.386Z,65.74
2022-09-03T09:28:10.406Z,64.61
2022-09-03T09:29:10.412Z,67.03
2022-09-03T09:30:10.435Z,66.23
2022-09-03T09:31:10.449Z,66.23
2022-09-03T09:32:10.390Z,65.58
2022-09-03T09:33:10.355Z,68.00
2022-09-03T09:34:10.350Z,66.39
2022-09-03T09:35:10.326Z,66.06
2022-09-03T09:36:10.371Z,66.39
2022-09-03T09:37:10.318Z,68.32
2022-09-03T09:38:10.286Z,65.42
2022-09-03T09:39:10.290Z,64.94
2022-09-03T09:40:47.373Z,66.71
2022-09-03T09:41:10.681Z,67.03
2022-09-03T09:42:10.551Z,65.74
2022-09-03T09:43:10.450Z,64.94
2022-09-03T09:44:10.229Z,65.74
2022-09-03T09:45:11.416Z,66.06
2022-09-03T09:46:10.353Z,66.55
2022-09-03T09:47:10.265Z,66.06
2022-09-03T09:48:10.206Z,65.58
2022-09-03T09:49:10.222Z,66.55
2022-09-03T09:50:10.238Z,64.78
2022-09-03T09:51:10.141Z,64.78
2022-09-03T09:52:10.176Z,64.13
2022-09-03T09:53:10.152Z,65.58
2022-09-03T09:54:12.645Z,65.42
2022-09-03T09:55:10.221Z,66.55
2022-09-03T09:56:10.129Z,67.19
2022-09-03T09:57:10.113Z,67.35
2022-09-03T09:58:14.330Z,68.16
2022-09-03T09:59:10.092Z,67.03
2022-09-03T10:00:10.110Z,66.23
2022-09-03T10:01:10.102Z,68.16
2022-09-03T10:02:10.273Z,67.19
2022-09-03T10:03:10.116Z,66.71
2022-09-03T10:04:10.166Z,66.71
2022-09-03T10:05:10.107Z,66.87
2022-09-03T10:06:09.994Z,67.84
2022-09-03T10:07:10.134Z,66.06
2022-09-03T10:08:09.964Z,69.29
2022-09-03T10:09:09.945Z,67.68
2022-09-03T10:10:10.101Z,67.51
2022-09-03T10:11:10.019Z,68.00
2022-09-03T10:12:09.993Z,66.55
2022-09-03T10:13:09.917Z,69.61
2022-09-03T10:14:09.944Z,69.29
2022-09-03T10:15:09.902Z,66.39
2022-09-03T10:16:09.912Z,65.10
2022-09-03T10:17:09.870Z,64.94
2022-09-03T10:18:09.927Z,65.74
2022-09-03T10:19:09.846Z,68.80
2022-09-03T10:20:09.805Z,67.68
2022-09-03T10:21:09.819Z,65.74
2022-09-03T10:22:09.845Z,67.19
2022-09-03T10:23:09.821Z,67.51
2022-09-03T10:24:09.798Z,67.03
2022-09-03T10:25:09.773Z,67.19
2022-09-03T10:26:09.769Z,65.10
2022-09-03T10:27:09.768Z,66.39
2022-09-03T10:28:09.784Z,68.80
2022-09-03T10:29:09.749Z,67.03
2022-09-03T10:30:09.685Z,68.48
2022-09-03T10:31:09.794Z,65.90
2022-09-03T10:32:09.736Z,66.06
2022-09-03T10:33:09.670Z,66.23
2022-09-03T10:34:09.738Z,68.64
2022-09-03T10:35:09.791Z,65.58
2022-09-03T10:36:09.645Z,66.87
2022-09-03T10:37:09.742Z,68.48
2022-09-03T10:38:09.951Z,66.39
2022-09-03T10:39:09.640Z,68.48
2022-09-03T10:40:09.642Z,68.16
2022-09-03T10:41:09.676Z,67.19
2022-09-03T10:42:09.635Z,65.42
2022-09-03T10:43:09.701Z,64.45
2022-09-03T10:44:09.548Z,64.29
2022-09-03T10:45:09.745Z,65.90
2022-09-03T10:46:09.640Z,64.29
2022-09-03T10:47:09.532Z,64.94
2022-09-03T10:48:09.531Z,66.71
2022-09-03T10:49:09.502Z,65.42
2022-09-03T10:50:09.587Z,65.58
2022-09-03T10:51:09.436Z,67.51
2022-09-03T10:52:09.507Z,66.39
2022-09-03T10:53:09.508Z,67.51
2022-09-03T10:54:09.759Z,66.23
2022-09-03T10:55:09.520Z,66.06
2022-09-03T10:56:09.533Z,68.48
2022-09-03T10:57:09.397Z,66.39
2022-09-03T10:58:09.733Z,68.48
2022-09-03T10:59:09.341Z,66.55
2022-09-03T11:00:09.477Z,67.84
2022-09-03T11:01:09.355Z,67.51
2022-09-03T11:02:09.325Z,67.68
2022-09-03T11:03:09.329Z,65.10
2022-09-03T11:04:09.328Z,67.35
2022-09-03T11:05:09.287Z,64.78
2022-09-03T11:06:09.294Z,66.71
2022-09-03T11:07:09.648Z,65.26
2022-09-03T11:08:09.264Z,66.87
2022-09-03T11:09:09.275Z,65.90
2022-09-03T11:10:09.264Z,67.19
2022-09-03T11:11:09.253Z,66.23
2022-09-03T11:12:09.596Z,64.13
2022-09-03T11:13:09.405Z,66.23
2022-09-03T11:14:24.297Z,64.45
2022-09-03T11:15:09.490Z,63.97
2022-09-03T11:16:09.294Z,68.00
2022-09-03T11:17:10.185Z,67.84
2022-09-03T11:18:09.267Z,68.64
2022-09-03T11:19:09.141Z,71.38
2022-09-03T11:20:09.132Z,67.03
2022-09-03T11:21:12.231Z,66.39
2022-09-03T11:22:09.491Z,68.64
2022-09-03T11:23:10.061Z,66.39
2022-09-03T11:24:09.090Z,69.13
2022-09-03T11:25:09.127Z,66.23
2022-09-03T11:26:09.187Z,66.71
2022-09-03T11:27:09.065Z,65.10
2022-09-03T11:28:09.098Z,66.87
2022-09-03T11:29:09.027Z,66.71
2022-09-03T11:30:09.010Z,69.45
2022-09-03T11:31:10.127Z,65.42
2022-09-03T11:32:09.007Z,65.42
2022-09-03T11:33:09.056Z,67.51
2022-09-03T11:34:09.057Z,67.68
2022-09-03T11:35:08.965Z,70.09
2022-09-03T11:36:08.982Z,65.58
2022-09-03T11:37:09.018Z,65.42
2022-09-03T11:38:08.904Z,66.23
2022-09-03T11:39:08.968Z,66.55
2022-09-03T11:40:08.977Z,66.55
2022-09-03T11:41:08.878Z,67.35
2022-09-03T11:42:08.975Z,66.39
2022-09-03T11:43:08.903Z,65.10
2022-09-03T11:44:08.837Z,65.58
2022-09-03T11:45:08.947Z,64.94
2022-09-03T11:46:08.916Z,66.23
2022-09-03T11:47:08.821Z,64.94
2022-09-03T11:48:08.832Z,65.90
2022-09-03T11:49:08.862Z,65.10
2022-09-03T11:50:08.796Z,64.78
2022-09-03T11:51:08.769Z,65.74
2022-09-03T11:52:08.804Z,64.13
2022-09-03T11:53:09.447Z,65.74
2022-09-03T11:54:08.772Z,67.19
2022-09-03T11:55:09.124Z,66.06
2022-09-03T11:56:08.757Z,67.19
2022-09-03T11:57:08.789Z,68.32
2022-09-03T11:58:08.735Z,66.39
2022-09-03T11:59:08.687Z,65.58
2022-09-03T12:00:08.885Z,66.23
2022-09-03T12:01:08.704Z,65.58
2022-09-03T12:02:09.322Z,66.06
2022-09-03T12:03:08.662Z,66.55
2022-09-03T12:04:08.729Z,64.78
2022-09-03T12:05:08.608Z,65.58
2022-09-03T12:06:08.624Z,65.58
2022-09-03T12:07:08.742Z,65.10
2022-09-03T12:08:09.156Z,68.32
2022-09-03T12:09:08.705Z,64.78
2022-09-03T12:10:09.269Z,64.45
2022-09-03T12:11:08.592Z,67.51
2022-09-03T12:12:08.576Z,65.26
2022-09-03T12:13:08.573Z,65.10
2022-09-03T12:14:13.596Z,66.06
2022-09-03T12:15:08.523Z,65.42
2022-09-03T12:16:08.697Z,64.29
2022-09-03T12:17:08.513Z,65.26
2022-09-03T12:18:08.530Z,66.71
2022-09-03T12:19:12.795Z,67.19
2022-09-03T12:20:08.509Z,67.03
2022-09-03T12:21:08.548Z,68.48
2022-09-03T12:22:08.450Z,67.19
2022-09-03T12:23:08.512Z,65.58
2022-09-03T12:24:08.549Z,66.39
2022-09-03T12:25:08.434Z,65.58
2022-09-03T12:26:08.465Z,64.29
2022-09-03T12:27:08.419Z,65.42
2022-09-03T12:28:08.393Z,65.58
2022-09-03T12:29:09.365Z,65.42
2022-09-03T12:30:08.414Z,63.49
2022-09-03T12:31:08.429Z,63.65
2022-09-03T12:32:08.807Z,66.39
2022-09-03T12:33:08.391Z,65.42
2022-09-03T12:34:08.462Z,64.45
2022-09-03T12:35:08.695Z,65.26
2022-09-03T12:36:08.345Z,63.81
2022-09-03T12:37:08.379Z,64.13
2022-09-03T12:38:09.503Z,66.87
2022-09-03T12:39:12.070Z,66.55
2022-09-03T12:40:09.437Z,66.55
2022-09-03T12:41:27.626Z,64.29
2022-09-03T12:42:10.261Z,63.97
2022-09-03T12:44:08.272Z,65.74
2022-09-03T12:45:08.182Z,65.26
2022-09-03T12:46:11.642Z,66.87
2022-09-03T12:47:38.726Z,65.10
2022-09-03T12:48:10.155Z,69.13
2022-09-03T12:50:08.143Z,63.81
2022-09-03T12:52:08.118Z,63.49
2022-09-03T12:53:08.088Z,66.23
2022-09-03T12:54:08.071Z,65.58
2022-09-03T12:55:08.080Z,66.71
2022-09-03T12:56:08.095Z,64.61
2022-09-03T12:57:08.639Z,67.51
2022-09-03T12:58:12.868Z,66.71
2022-09-03T12:59:08.005Z,67.03
2022-09-03T13:00:08.844Z,64.13
2022-09-03T13:01:08.051Z,66.71
2022-09-03T13:02:08.074Z,64.45
2022-09-03T13:03:07.985Z,63.16
2022-09-03T13:04:08.453Z,66.23
2022-09-03T13:05:08.120Z,67.35
2022-09-03T13:06:07.951Z,64.78
2022-09-03T13:07:08.101Z,64.29
2022-09-03T13:08:07.928Z,65.10
2022-09-03T13:09:07.892Z,65.26
2022-09-03T13:10:08.025Z,66.87
2022-09-03T13:11:07.897Z,66.06
2022-09-03T13:12:07.867Z,66.06
2022-09-03T13:13:07.915Z,66.06
2022-09-03T13:14:07.886Z,65.10
2022-09-03T13:15:07.881Z,67.84
2022-09-03T13:16:07.872Z,63.65
2022-09-03T13:17:07.802Z,63.16
2022-09-03T13:18:07.842Z,66.23
2022-09-03T13:19:07.893Z,64.61
2022-09-03T13:20:07.834Z,66.06
2022-09-03T13:21:07.845Z,66.23
2022-09-03T13:22:07.719Z,66.55
2022-09-03T13:23:07.761Z,65.10
2022-09-03T13:24:07.713Z,65.10
2022-09-03T13:25:07.736Z,63.33
2022-09-03T13:26:07.724Z,66.06
2022-09-03T13:27:07.683Z,66.55
2022-09-03T13:28:07.675Z,63.49
2022-09-03T13:29:07.677Z,63.33
2022-09-03T13:30:07.742Z,65.26
2022-09-03T13:31:07.678Z,64.94
2022-09-03T13:32:07.628Z,67.03
2022-09-03T13:33:07.614Z,66.06
2022-09-03T13:34:07.670Z,63.16
2022-09-03T13:35:07.635Z,64.78
2022-09-03T13:44:44.172Z,66.55
2022-09-03T13:45:44.261Z,64.78
2022-09-03T13:46:44.089Z,65.58
2022-09-03T13:47:44.079Z,68.48
2022-09-03T13:48:44.013Z,69.29
2022-09-03T13:49:44.041Z,67.35
2022-09-03T13:50:44.027Z,65.26
2022-09-03T13:51:43.999Z,64.13
2022-09-03T13:52:44.000Z,66.06
2022-09-03T13:53:43.989Z,65.58
2022-09-03T13:54:49.090Z,66.55
2022-09-03T13:55:43.927Z,66.55
2022-09-03T13:56:43.901Z,66.55
2022-09-03T13:57:43.909Z,64.61
2022-09-03T13:58:43.898Z,74.28
2022-09-03T13:59:43.873Z,70.25
2022-09-03T14:00:43.855Z,74.28
2022-09-03T14:01:43.935Z,87.82
2022-09-03T14:02:43.876Z,75.09
2022-09-03T14:03:48.608Z,84.27
2022-09-03T14:04:44.811Z,67.68
2022-09-03T14:05:43.792Z,78.15
2022-09-03T14:06:43.772Z,62.84
2022-09-03T14:07:43.766Z,70.58
2022-09-03T14:08:43.761Z,67.68
2022-09-03T14:09:43.755Z,68.00
2022-09-03T14:10:43.722Z,68.16
2022-09-03T14:11:43.759Z,69.93
2022-09-03T14:12:43.695Z,81.69
2022-09-03T14:13:43.717Z,73.80
2022-09-03T14:14:43.670Z,67.68
2022-09-03T14:15:45.696Z,66.55
2022-09-03T14:16:43.696Z,63.97
2022-09-03T14:17:43.885Z,71.06
2022-09-03T14:18:44.250Z,70.09
2022-09-03T14:19:43.730Z,68.16
2022-09-03T14:20:43.596Z,67.68
2022-09-03T14:21:43.588Z,66.71
2022-09-03T14:22:43.563Z,67.03
2022-09-03T14:23:43.583Z,65.42
2022-09-03T14:24:43.546Z,66.55
2022-09-03T14:25:47.481Z,67.84
2022-09-03T14:26:43.520Z,66.55
2022-09-03T14:27:43.511Z,65.42
2022-09-03T14:28:43.506Z,66.23
2022-09-03T14:29:43.483Z,69.45
2022-09-03T14:30:43.463Z,67.19
2022-09-03T14:31:43.498Z,69.45
2022-09-03T14:32:43.427Z,68.96
2022-09-03T14:33:43.446Z,67.51
2022-09-03T14:34:43.414Z,70.09
2022-09-03T14:35:43.396Z,69.61
2022-09-03T14:36:43.396Z,67.51
2022-09-03T14:37:43.375Z,67.68
2022-09-03T14:38:43.375Z,68.80
2022-09-03T14:39:43.484Z,66.39
2022-09-03T14:40:43.417Z,65.26
2022-09-03T14:41:43.328Z,67.03
2022-09-03T14:42:43.319Z,65.10
2022-09-03T14:43:43.330Z,65.10
2022-09-03T14:44:43.306Z,68.16
2022-09-03T14:45:43.344Z,66.06
2022-09-03T14:46:43.292Z,72.99
2022-09-03T14:47:43.242Z,68.80
2022-09-03T14:48:43.245Z,72.19
2022-09-03T14:49:43.218Z,63.49
2022-09-03T14:50:43.200Z,65.26
2022-09-03T14:51:43.244Z,67.19
2022-09-03T14:52:43.189Z,67.03
2022-09-03T14:53:43.201Z,65.10
2022-09-03T14:54:43.154Z,66.06
2022-09-03T14:55:43.155Z,67.19
2022-09-03T14:56:43.119Z,67.51
2022-09-03T14:57:43.111Z,65.42
2022-09-03T14:58:43.135Z,65.74
2022-09-03T14:59:43.091Z,65.10
2022-09-03T15:00:43.101Z,67.19
2022-09-03T15:01:43.063Z,69.13
2022-09-03T15:02:43.045Z,67.51
2022-09-03T15:03:43.050Z,65.26
2022-09-03T15:04:43.039Z,66.23
2022-09-03T15:05:43.036Z,66.39
2022-09-03T15:06:43.156Z,67.03
2022-09-03T15:07:42.992Z,65.58
2022-09-03T15:08:42.973Z,68.48
2022-09-03T15:09:42.984Z,68.00
2022-09-03T15:10:43.008Z,67.51
2022-09-03T15:11:42.944Z,67.51
2022-09-03T15:12:42.921Z,70.58
2022-09-03T15:13:42.928Z,68.48
2022-09-03T15:14:42.940Z,65.58